Terminal Aerodrome Forecast
Issued by NWS Spokane, WA

Home | Current Version | Previous Version | Text Only | Print | Product List | Glossary On
Versions: 1 2 3 4 5 6 7 8 9 10 11 12 13 14 15 16 17 18 19 20 21 22 23 24 25 26
000
FTUS46 KOTX 222330
TAFGEG
TAF
KGEG 222330Z 2300/2324 19011KT P6SM -RA OVC045
     FM230500 16015G22KT 6SM -RA BR BKN025 OVC040 WS010/23040KT
     FM231300 23014G20KT P6SM VCSH FEW010 SCT015 OVC030
     FM232000 20016G24KT P6SM FEW015 SCT030 BKN040=

USA.gov is the U.S. government's official web portal to all federal, state and local government web resources and services.